Time;durP1;ratioP1;P1;durP2;ratioP2;P2;SDS_P1;SDS_P2;PMS_P1;PMS_P2;Temp;Humidity;BMP_temperature;BMP_pressure;BME280_temperature;BME280_humidity;BME280_pressure;Samples;Min_cycle;Max_cycle;Signal;HPM_P1;HPM_P2
2022/03/10 00:03:35;;;;;;;22.90;10.77;;;;;-1.90;97068.00;;;;8340253;28;20236;-70
2022/03/10 00:07:39;;;;;;;20.60;10.53;;;;;-1.90;97074.00;;;;8341316;28;20302;-70
2022/03/10 00:11:41;;;;;;;22.33;10.23;;;;;-1.80;97073.00;;;;8333761;28;20302;-69
2022/03/10 00:15:44;;;;;;;22.67;9.53;;;;;-1.90;97072.00;;;;8336202;28;20271;-70
2022/03/10 00:19:49;;;;;;;22.50;10.47;;;;;-2.00;97075.00;;;;8336959;28;20823;-70
2022/03/10 00:23:52;;;;;;;24.00;10.03;;;;;-2.10;97067.00;;;;8337338;28;20251;-71
2022/03/10 00:27:55;;;;;;;22.73;10.30;;;;;-2.10;97074.00;;;;8331322;28;20236;-71
2022/03/10 00:31:58;;;;;;;23.30;9.30;;;;;-2.00;97077.00;;;;8333874;28;20225;-71
2022/03/10 00:36:03;;;;;;;21.43;8.90;;;;;-2.00;97085.00;;;;8337827;28;20260;-73
2022/03/10 00:40:07;;;;;;;22.40;9.37;;;;;-2.10;97088.00;;;;8350952;28;20458;-73
2022/03/10 00:44:10;;;;;;;17.70;8.73;;;;;-2.10;97095.00;;;;8351022;28;20230;-70
2022/03/10 00:48:13;;;;;;;18.20;8.87;;;;;-2.20;97095.00;;;;8348961;28;20232;-73
2022/03/10 00:52:17;;;;;;;22.07;9.13;;;;;-2.30;97087.00;;;;8342043;28;20787;-74
2022/03/10 00:56:20;;;;;;;19.70;8.57;;;;;-2.40;97092.00;;;;8341516;28;20232;-75
2022/03/10 01:00:25;;;;;;;19.90;8.33;;;;;-2.40;97086.00;;;;8346146;28;20370;-73
2022/03/10 01:04:28;;;;;;;19.10;8.87;;;;;-2.30;97084.00;;;;8348820;28;20573;-75
2022/03/10 01:08:33;;;;;;;20.13;8.57;;;;;-2.20;97084.00;;;;8346048;28;20232;-74
2022/03/10 01:12:36;;;;;;;18.83;8.40;;;;;-2.10;97084.00;;;;8332911;28;20283;-74
2022/03/10 01:16:39;;;;;;;15.83;7.87;;;;;-2.10;97075.00;;;;8344259;28;20240;-75
2022/03/10 01:20:42;;;;;;;15.17;8.50;;;;;-2.00;97077.00;;;;8346325;28;20228;-75
2022/03/10 01:24:47;;;;;;;21.53;9.10;;;;;-2.00;97077.00;;;;8344356;28;20252;-73
2022/03/10 01:28:51;;;;;;;15.37;7.87;;;;;-1.90;97080.00;;;;8347305;28;21034;-75
2022/03/10 01:32:54;;;;;;;17.73;7.83;;;;;-1.90;97087.00;;;;8346265;28;20235;-74
2022/03/10 01:36:57;;;;;;;18.43;7.40;;;;;-1.90;97084.00;;;;8345167;28;20229;-75
2022/03/10 01:41:02;;;;;;;15.67;7.20;;;;;-2.00;97080.00;;;;8341096;28;20232;-75
2022/03/10 01:45:06;;;;;;;15.00;7.70;;;;;-2.10;97082.00;;;;8341293;28;20282;-75
2022/03/10 01:49:12;;;;;;;17.83;7.60;;;;;-2.30;97077.00;;;;8342485;28;20225;-76
2022/03/10 01:53:15;;;;;;;18.27;7.67;;;;;-2.50;97083.00;;;;8346524;28;20233;-75
2022/03/10 01:57:22;;;;;;;12.73;7.30;;;;;-2.50;97078.00;;;;8338613;28;20237;-76
2022/03/10 02:01:25;;;;;;;18.50;7.53;;;;;-2.50;97083.00;;;;8338623;28;20269;-76
2022/03/10 02:05:32;;;;;;;16.20;8.07;;;;;-2.40;97088.00;;;;8343596;28;20232;-76
2022/03/10 02:13:56;;;;;;;14.87;7.33;;;;;-2.40;97096.00;;;;8340583;28;20232;-75
2022/03/10 02:17:58;;;;;;;13.27;6.93;;;;;-2.40;97097.00;;;;8334684;28;20699;-75
2022/03/10 02:22:08;;;;;;;14.90;7.37;;;;;-2.50;97096.00;;;;8352454;28;20225;-75
2022/03/10 02:26:12;;;;;;;15.27;7.07;;;;;-2.50;97096.00;;;;8342666;28;20220;-75
2022/03/10 02:30:15;;;;;;;16.17;6.50;;;;;-2.60;97096.00;;;;8341236;28;20289;-76
2022/03/10 02:34:18;;;;;;;19.70;7.10;;;;;-2.60;97113.00;;;;8344247;28;20675;-76
2022/03/10 02:38:22;;;;;;;15.10;7.27;;;;;-2.50;97112.00;;;;8346927;28;20267;-76
2022/03/10 02:42:25;;;;;;;17.93;7.93;;;;;-2.50;97114.00;;;;8343214;28;20242;-78
2022/03/10 02:46:28;;;;;;;15.40;7.00;;;;;-2.50;97122.00;;;;8347302;28;20229;-80
2022/03/10 02:50:32;;;;;;;15.73;7.10;;;;;-2.50;97125.00;;;;8346567;28;20248;-77
2022/03/10 02:54:36;;;;;;;13.00;6.50;;;;;-2.50;97133.00;;;;8337340;28;20225;-79
2022/03/10 02:58:39;;;;;;;12.37;6.17;;;;;-2.50;97128.00;;;;8337350;28;20270;-77
2022/03/10 03:02:42;;;;;;;15.97;6.97;;;;;-2.60;97129.00;;;;8402781;22;20234;-78
2022/03/10 03:06:46;;;;;;;14.30;6.60;;;;;-2.60;97128.00;;;;8377536;28;20224;-77
2022/03/10 03:10:50;;;;;;;15.50;7.47;;;;;-2.60;97137.00;;;;8380867;28;20284;-80
2022/03/10 03:14:54;;;;;;;18.17;6.83;;;;;-2.50;97148.00;;;;8381462;28;20227;-82
2022/03/10 03:18:57;;;;;;;16.90;6.90;;;;;-2.60;97142.00;;;;8380236;28;20909;-76
2022/03/10 03:23:00;;;;;;;18.70;6.83;;;;;-2.50;97143.00;;;;8381690;28;20233;-78
2022/03/10 03:27:05;;;;;;;14.17;6.83;;;;;-2.50;97139.00;;;;8374132;28;20219;-78
2022/03/10 03:31:09;;;;;;;17.57;7.13;;;;;-2.60;97153.00;;;;8375831;28;20223;-78
2022/03/10 03:35:12;;;;;;;13.37;6.40;;;;;-2.60;97146.00;;;;8372479;28;20633;-79
2022/03/10 03:39:15;;;;;;;18.17;7.43;;;;;-2.70;97144.00;;;;8379756;28;20225;-78
2022/03/10 03:43:19;;;;;;;17.03;7.33;;;;;-2.70;97149.00;;;;8380054;28;20283;-78
2022/03/10 03:47:22;;;;;;;14.47;6.90;;;;;-2.80;97156.00;;;;8378745;28;20231;-77
2022/03/10 03:51:26;;;;;;;15.07;6.70;;;;;-2.80;97155.00;;;;8374161;28;20234;-76
2022/03/10 03:55:29;;;;;;;19.37;7.40;;;;;-2.90;97152.00;;;;8375423;28;20227;-76
2022/03/10 03:59:33;;;;;;;16.73;6.70;;;;;-3.10;97162.00;;;;8377490;28;20742;-76
2022/03/10 04:03:37;;;;;;;16.37;7.07;;;;;-3.20;97162.00;;;;8374478;28;20282;-76
2022/03/10 04:07:40;;;;;;;18.80;7.37;;;;;-3.30;97162.00;;;;8377161;28;20242;-76
2022/03/10 04:11:43;;;;;;;16.90;6.97;;;;;-3.30;97160.00;;;;8383190;28;20235;-76
2022/03/10 04:15:48;;;;;;;15.73;7.00;;;;;-3.30;97169.00;;;;8373592;28;20215;-75
2022/03/10 04:19:53;;;;;;;13.80;6.53;;;;;-3.30;97166.00;;;;8377628;28;20268;-76
2022/03/10 04:23:56;;;;;;;14.63;6.80;;;;;-3.30;97171.00;;;;8379752;28;20230;-76
2022/03/10 04:27:59;;;;;;;18.73;6.60;;;;;-3.30;97175.00;;;;8379185;28;20280;-76
2022/03/10 04:32:05;;;;;;;17.17;7.57;;;;;-3.30;97176.00;;;;8376183;28;20228;-76
2022/03/10 04:36:08;;;;;;;29.23;9.37;;;;;-3.20;97181.00;;;;8373562;28;20235;-76
2022/03/10 04:40:11;;;;;;;19.27;6.80;;;;;-3.20;97165.00;;;;8378604;28;20285;-75
2022/03/10 04:44:14;;;;;;;13.47;6.43;;;;;-3.20;97169.00;;;;8375852;28;20239;-74
2022/03/10 04:48:18;;;;;;;14.33;6.17;;;;;-3.30;97165.00;;;;8376545;28;20277;-75
2022/03/10 04:52:22;;;;;;;14.77;6.47;;;;;-3.30;97182.00;;;;8376995;28;20269;-74
2022/03/10 04:56:25;;;;;;;14.27;7.57;;;;;-3.40;97178.00;;;;8369825;28;20640;-80
2022/03/10 05:00:28;;;;;;;17.13;7.23;;;;;-3.40;97174.00;;;;8365117;28;20301;-79
2022/03/10 05:04:33;;;;;;;13.47;6.50;;;;;-3.40;97173.00;;;;8368786;28;20224;-79
2022/03/10 05:08:36;;;;;;;18.23;7.03;;;;;-3.50;97179.00;;;;8370311;28;20235;-74
2022/03/10 05:12:47;;;;;;;12.73;6.87;;;;;-3.60;97177.00;;;;8372031;28;20235;-76
2022/03/10 05:16:50;;;;;;;17.30;7.50;;;;;-3.70;97166.00;;;;8372203;28;20303;-78
2022/03/10 05:20:54;;;;;;;13.60;6.63;;;;;-3.80;97174.00;;;;8366048;28;20277;-76
2022/03/10 05:24:57;;;;;;;15.87;7.40;;;;;-3.80;97166.00;;;;8358017;28;20293;-74
2022/03/10 05:29:00;;;;;;;17.73;7.37;;;;;-3.90;97167.00;;;;8373029;28;20243;-76
2022/03/10 05:33:04;;;;;;;21.73;7.27;;;;;-3.80;97167.00;;;;8362017;28;20229;-76
2022/03/10 05:37:08;;;;;;;16.87;7.30;;;;;-3.80;97169.00;;;;8373153;28;20630;-76
2022/03/10 05:41:11;;;;;;;14.73;7.43;;;;;-3.80;97178.00;;;;8373960;28;20327;-76
2022/03/10 05:45:20;;;;;;;15.03;7.07;;;;;-3.80;97175.00;;;;8363700;28;20485;-81
2022/03/10 05:49:23;;;;;;;15.00;6.93;;;;;-3.90;97182.00;;;;8376662;28;20251;-77
2022/03/10 05:53:28;;;;;;;15.40;6.77;;;;;-3.90;97178.00;;;;8381539;28;20800;-74
2022/03/10 05:57:31;;;;;;;19.37;7.53;;;;;-3.90;97183.00;;;;8377111;28;20239;-78
2022/03/10 06:01:34;;;;;;;15.40;7.10;;;;;-3.90;97192.00;;;;8371152;28;21074;-74
2022/03/10 06:05:37;;;;;;;15.67;6.87;;;;;-3.90;97190.00;;;;8382121;28;20230;-74
2022/03/10 06:09:41;;;;;;;18.37;7.40;;;;;-3.80;97198.00;;;;8377437;28;20234;-73
2022/03/10 06:13:44;;;;;;;13.03;7.07;;;;;-3.70;97201.00;;;;8378472;28;20233;-75
2022/03/10 06:17:47;;;;;;;16.37;7.53;;;;;-3.50;97197.00;;;;8380634;28;20683;-73
2022/03/10 06:21:51;;;;;;;16.30;7.37;;;;;-3.30;97204.00;;;;8384249;28;20312;-75
2022/03/10 06:25:55;;;;;;;18.73;7.47;;;;;-3.20;97204.00;;;;8386204;28;20796;-74
2022/03/10 06:29:58;;;;;;;22.40;8.63;;;;;-3.00;97205.00;;;;8380740;28;20235;-74
2022/03/10 06:34:01;;;;;;;18.07;8.23;;;;;-2.90;97206.00;;;;8379649;28;20307;-75
2022/03/10 06:38:05;;;;;;;17.30;7.90;;;;;-2.70;97209.00;;;;8380674;28;20254;-75
2022/03/10 06:42:10;;;;;;;17.07;8.23;;;;;-2.60;97206.00;;;;8379592;28;20285;-74
2022/03/10 06:46:13;;;;;;;15.97;7.10;;;;;-2.40;97216.00;;;;8381326;28;20273;-75
2022/03/10 06:50:16;;;;;;;20.93;7.80;;;;;-2.30;97203.00;;;;8373826;28;20227;-75
2022/03/10 06:54:20;;;;;;;16.73;7.77;;;;;-2.10;97209.00;;;;8376360;28;20231;-76
2022/03/10 06:58:24;;;;;;;17.87;7.67;;;;;-1.90;97227.00;;;;8380337;28;20228;-70
2022/03/10 07:02:27;;;;;;;16.17;7.73;;;;;-1.70;97220.00;;;;8376456;28;20228;-68
2022/03/10 07:06:30;;;;;;;20.30;8.43;;;;;-1.50;97222.00;;;;8374967;28;20232;-68
2022/03/10 07:10:33;;;;;;;18.70;8.83;;;;;-1.20;97227.00;;;;8373620;28;20755;-74
2022/03/10 07:14:38;;;;;;;17.50;8.87;;;;;-0.90;97229.00;;;;8378725;28;20677;-75
2022/03/10 07:18:41;;;;;;;17.87;7.80;;;;;-0.70;97229.00;;;;8379070;28;20231;-73
2022/03/10 07:22:45;;;;;;;27.83;10.17;;;;;-0.40;97229.00;;;;8377166;28;20247;-73
2022/03/10 07:26:48;;;;;;;18.30;8.77;;;;;-0.20;97232.00;;;;8371391;28;20858;-73
2022/03/10 07:30:53;;;;;;;18.33;9.07;;;;;0.20;97228.00;;;;8370164;28;20254;-69
2022/03/10 07:34:56;;;;;;;18.03;8.60;;;;;0.50;97231.00;;;;8377343;28;20223;-73
2022/03/10 07:38:59;;;;;;;21.20;8.87;;;;;0.90;97243.00;;;;8376714;28;20281;-75
2022/03/10 07:43:03;;;;;;;16.43;8.20;;;;;1.20;97244.00;;;;8375508;28;20258;-75
2022/03/10 07:47:07;;;;;;;17.03;7.40;;;;;1.60;97248.00;;;;8378329;28;20789;-74
2022/03/10 07:51:10;;;;;;;17.83;9.00;;;;;1.80;97243.00;;;;8376240;28;20624;-73
2022/03/10 07:55:13;;;;;;;20.97;10.90;;;;;2.10;97255.00;;;;8376715;28;20876;-74
2022/03/10 07:59:16;;;;;;;18.80;9.37;;;;;2.40;97243.00;;;;8379749;28;20231;-75
2022/03/10 08:03:21;;;;;;;18.13;8.47;;;;;2.70;97246.00;;;;8378244;28;20231;-75
2022/03/10 08:07:24;;;;;;;16.90;8.93;;;;;3.10;97247.00;;;;8373918;28;20311;-74
2022/03/10 08:11:27;;;;;;;16.47;8.00;;;;;3.50;97254.00;;;;8374356;28;20220;-73
2022/03/10 08:15:30;;;;;;;16.90;7.60;;;;;3.90;97246.00;;;;8374484;28;20229;-75
2022/03/10 08:19:35;;;;;;;17.27;7.87;;;;;4.30;97252.00;;;;8377303;28;20235;-74
2022/03/10 08:23:38;;;;;;;16.37;7.20;;;;;4.60;97254.00;;;;8381909;28;20222;-74
2022/03/10 08:27:41;;;;;;;13.13;6.80;;;;;5.00;97233.00;;;;8379052;28;20281;-76
2022/03/10 08:31:44;;;;;;;15.23;6.83;;;;;5.30;97238.00;;;;8378948;28;20225;-74
2022/03/10 08:35:52;;;;;;;13.67;6.90;;;;;5.50;97232.00;;;;8376724;28;20233;-78
2022/03/10 08:39:55;;;;;;;13.27;6.73;;;;;5.70;97239.00;;;;8378967;28;20228;-79
2022/03/10 08:43:58;;;;;;;13.87;7.10;;;;;5.90;97242.00;;;;8390078;28;20669;-79
2022/03/10 08:48:01;;;;;;;13.70;6.80;;;;;6.00;97239.00;;;;8390773;28;20236;-79
2022/03/10 08:52:06;;;;;;;12.97;7.10;;;;;6.00;97240.00;;;;8386773;28;20231;-82
2022/03/10 08:56:09;;;;;;;19.40;7.50;;;;;6.20;97246.00;;;;8391559;28;20234;-80
2022/03/10 09:00:13;;;;;;;18.47;8.30;;;;;6.40;97243.00;;;;8386728;28;20276;-79
2022/03/10 09:04:17;;;;;;;15.23;7.50;;;;;6.60;97244.00;;;;8386878;28;20235;-80
2022/03/10 09:08:21;;;;;;;20.87;7.17;;;;;6.90;97243.00;;;;8399099;28;20231;-80
2022/03/10 09:12:24;;;;;;;13.37;7.07;;;;;7.20;97243.00;;;;8390221;28;20621;-82
2022/03/10 09:16:27;;;;;;;15.17;7.33;;;;;7.30;97252.00;;;;8394344;28;20301;-83
2022/03/10 09:20:31;;;;;;;12.67;7.43;;;;;7.70;97248.00;;;;8371463;28;20228;-83
2022/03/10 09:24:35;;;;;;;16.90;8.30;;;;;7.90;97242.00;;;;8384953;28;20217;-79
2022/03/10 09:28:39;;;;;;;14.00;7.23;;;;;8.10;97240.00;;;;8369502;28;20236;-78
2022/03/10 09:32:45;;;;;;;13.70;6.80;;;;;8.50;97238.00;;;;8359347;28;20247;-79
2022/03/10 09:36:49;;;;;;;13.80;7.63;;;;;8.70;97243.00;;;;8364163;28;20296;-77
2022/03/10 09:40:54;;;;;;;12.53;7.43;;;;;8.90;97231.00;;;;8364093;28;20231;-79
2022/03/10 09:44:58;;;;;;;15.17;7.37;;;;;9.50;97233.00;;;;8374092;28;20225;-79
2022/03/10 09:49:02;;;;;;;14.70;7.60;;;;;10.10;97238.00;;;;8350622;28;20227;-77
2022/03/10 09:53:05;;;;;;;14.77;7.83;;;;;10.50;97240.00;;;;8356015;28;20254;-77
2022/03/10 09:57:10;;;;;;;18.47;9.10;;;;;10.60;97242.00;;;;8369258;28;20239;-75
2022/03/10 10:01:15;;;;;;;18.83;9.17;;;;;10.90;97241.00;;;;8358643;28;20232;-74
2022/03/10 10:05:22;;;;;;;16.40;7.97;;;;;11.20;97235.00;;;;8371426;28;20227;-74
2022/03/10 10:09:40;;;;;;;18.30;8.20;;;;;11.80;97236.00;;;;8380457;28;20649;-74
2022/03/10 10:13:51;;;;;;;17.73;8.67;;;;;12.40;97252.00;;;;8391680;28;20291;-73
2022/03/10 10:17:57;;;;;;;16.10;8.97;;;;;12.90;97236.00;;;;8394385;28;20223;-73
2022/03/10 10:22:15;;;;;;;14.23;8.57;;;;;13.20;97235.00;;;;8393744;28;20719;-73
2022/03/10 10:26:20;;;;;;;16.13;8.70;;;;;13.70;97234.00;;;;8390763;28;20270;-73
2022/03/10 10:30:26;;;;;;;14.13;8.40;;;;;13.80;97240.00;;;;8388162;28;20224;-75
2022/03/10 10:34:31;;;;;;;17.27;8.68;;;;;14.00;97239.00;;;;8383490;28;20269;-74
2022/03/10 10:38:34;;;;;;;14.93;8.85;;;;;13.90;97240.00;;;;8379042;28;20274;-74
2022/03/10 10:42:40;;;;;;;15.13;8.93;;;;;13.40;97244.00;;;;8377998;28;20661;-74
2022/03/10 10:46:45;;;;;;;14.88;9.35;;;;;13.10;97244.00;;;;8383517;28;20309;-74
2022/03/10 10:50:48;;;;;;;12.70;8.63;;;;;13.00;97241.00;;;;8379316;28;20414;-72
2022/03/10 10:55:04;;;;;;;17.30;8.85;;;;;12.60;97229.00;;;;8372540;28;20232;-72
2022/03/10 10:59:08;;;;;;;13.80;7.68;;;;;12.00;97222.00;;;;8382256;28;20307;-73
2022/03/10 11:03:23;;;;;;;12.20;7.43;;;;;11.90;97226.00;;;;8380574;28;20298;-72
2022/03/10 11:07:26;;;;;;;16.52;8.73;;;;;11.90;97217.00;;;;8375198;28;20236;-74
2022/03/10 11:11:30;;;;;;;14.43;8.73;;;;;12.00;97201.00;;;;8377493;28;20232;-74
2022/03/10 11:15:36;;;;;;;14.63;8.33;;;;;12.20;97199.00;;;;8378769;28;20228;-73
2022/03/10 11:19:45;;;;;;;18.02;9.20;;;;;12.20;97194.00;;;;8377685;28;20241;-73
2022/03/10 11:24:00;;;;;;;16.90;9.15;;;;;12.20;97200.00;;;;8379474;28;20636;-77
2022/03/10 11:28:10;;;;;;;16.13;9.02;;;;;12.00;97191.00;;;;8383045;28;20230;-77
2022/03/10 11:32:13;;;;;;;16.33;8.88;;;;;12.20;97200.00;;;;8385000;28;20224;-78
2022/03/10 11:36:25;;;;;;;20.70;9.73;;;;;12.30;97183.00;;;;8389265;28;20235;-77
2022/03/10 11:40:51;;;;;;;16.38;9.25;;;;;12.50;97190.00;;;;8393277;28;20998;-80
2022/03/10 11:45:06;;;;;;;16.38;9.23;;;;;12.60;97196.00;;;;8387731;28;20247;-77
2022/03/10 11:49:11;;;;;;;15.32;9.18;;;;;12.60;97197.00;;;;8391496;28;20223;-78
2022/03/10 11:53:17;;;;;;;14.52;7.85;;;;;12.60;97189.00;;;;8386601;28;20232;-80
2022/03/10 11:57:19;;;;;;;15.80;8.55;;;;;12.80;97184.00;;;;8392529;28;20228;-77
2022/03/10 12:01:22;;;;;;;12.32;7.90;;;;;12.70;97163.00;;;;8389263;28;20816;-77
2022/03/10 12:05:26;;;;;;;11.30;6.15;;;;;12.70;97162.00;;;;8383208;28;20277;-77
2022/03/10 12:09:33;;;;;;;14.70;8.00;;;;;12.70;97157.00;;;;8378929;28;20925;-76
2022/03/10 12:13:38;;;;;;;14.93;7.88;;;;;12.60;97153.00;;;;8369231;28;20226;-75
2022/03/10 12:17:53;;;;;;;13.20;7.22;;;;;12.30;97139.00;;;;8367162;28;20784;-75
2022/03/10 12:21:56;;;;;;;12.60;7.18;;;;;12.40;97154.00;;;;8368398;28;20233;-75
2022/03/10 12:26:09;;;;;;;11.82;6.80;;;;;12.40;97144.00;;;;8375424;28;20284;-75
2022/03/10 12:30:13;;;;;;;10.82;6.45;;;;;12.30;97145.00;;;;8374450;28;20228;-75
2022/03/10 12:34:17;;;;;;;14.50;8.10;;;;;12.10;97131.00;;;;8381623;28;20616;-74
2022/03/10 12:38:35;;;;;;;14.35;8.93;;;;;12.20;97127.00;;;;8379738;28;20240;-73
2022/03/10 12:42:40;;;;;;;11.27;6.75;;;;;12.50;97123.00;;;;8380234;28;20228;-73
2022/03/10 12:46:43;;;;;;;12.70;6.88;;;;;12.50;97109.00;;;;8374817;28;20746;-74
2022/03/10 12:50:47;;;;;;;13.45;7.05;;;;;12.60;97105.00;;;;8372048;28;20218;-72
2022/03/10 12:54:50;;;;;;;12.45;7.72;;;;;12.70;97102.00;;;;8373919;28;20233;-76
2022/03/10 12:58:56;;;;;;;15.02;7.82;;;;;12.70;97094.00;;;;8377807;28;20607;-75
2022/03/10 13:03:00;;;;;;;13.48;8.15;;;;;12.80;97098.00;;;;8375706;28;23420;-76
2022/03/10 13:07:03;;;;;;;15.82;8.30;;;;;12.90;97092.00;;;;8377534;28;20276;-72
2022/03/10 13:11:08;;;;;;;17.70;9.75;;;;;13.00;97092.00;;;;8381182;28;20229;-76
2022/03/10 13:15:21;;;;;;;17.23;9.25;;;;;12.90;97088.00;;;;8377843;28;20235;-76
2022/03/10 13:19:26;;;;;;;18.83;8.93;;;;;12.90;97078.00;;;;8380249;28;20288;-77
2022/03/10 13:23:29;;;;;;;16.27;9.55;;;;;12.90;97074.00;;;;8367293;28;20288;-75
2022/03/10 13:27:34;;;;;;;19.45;9.18;;;;;13.10;97068.00;;;;8376922;28;21098;-74
2022/03/10 13:31:38;;;;;;;17.13;9.25;;;;;13.10;97067.00;;;;8374646;28;20230;-74
2022/03/10 13:35:43;;;;;;;15.85;8.57;;;;;13.20;97062.00;;;;8378061;28;20293;-76
2022/03/10 13:39:52;;;;;;;19.23;9.88;;;;;13.10;97061.00;;;;8375350;28;20848;-78
2022/03/10 13:43:55;;;;;;;18.85;9.57;;;;;13.10;97056.00;;;;8376969;28;20222;-76
2022/03/10 13:48:00;;;;;;;19.48;10.55;;;;;13.20;97049.00;;;;8370951;28;20232;-74
2022/03/10 13:52:11;;;;;;;16.02;9.82;;;;;13.30;97041.00;;;;8369018;28;20311;-74
2022/03/10 13:56:15;;;;;;;17.77;10.40;;;;;13.30;97034.00;;;;8379645;28;20220;-74
2022/03/10 14:00:26;;;;;;;19.00;10.25;;;;;13.40;97040.00;;;;8376145;28;20242;-74
2022/03/10 14:04:36;;;;;;;18.63;9.88;;;;;13.40;97035.00;;;;8377922;28;20228;-73
2022/03/10 14:08:48;;;;;;;16.17;9.15;;;;;13.40;97039.00;;;;8378994;28;20229;-74
2022/03/10 14:12:51;;;;;;;17.70;9.63;;;;;13.30;97029.00;;;;8380120;28;20229;-74
2022/03/10 14:16:54;;;;;;;16.30;8.98;;;;;13.40;97033.00;;;;8378243;28;20238;-76
2022/03/10 14:21:06;;;;;;;17.58;9.40;;;;;13.50;97022.00;;;;8376123;28;20313;-73
2022/03/10 14:25:09;;;;;;;15.40;8.60;;;;;13.80;97018.00;;;;8380257;28;20254;-74
2022/03/10 14:29:13;;;;;;;18.20;10.02;;;;;14.00;97018.00;;;;8376662;28;20341;-74
2022/03/10 14:33:16;;;;;;;23.75;12.65;;;;;14.10;97008.00;;;;8366673;28;20232;-74
2022/03/10 14:37:21;;;;;;;23.83;12.10;;;;;14.20;97015.00;;;;8380997;28;20276;-74
2022/03/10 14:41:28;;;;;;;20.38;10.50;;;;;14.40;97008.00;;;;8382441;28;20247;-74
2022/03/10 14:45:34;;;;;;;12.98;6.70;;;;;14.40;97006.00;;;;8375262;28;20233;-74
2022/03/10 14:49:37;;;;;;;12.57;7.15;;;;;14.40;97000.00;;;;8372116;28;20234;-76
2022/03/10 14:53:42;;;;;;;18.02;8.73;;;;;14.40;96996.00;;;;8374507;28;20280;-75
2022/03/10 14:57:45;;;;;;;20.17;9.18;;;;;14.30;96990.00;;;;8375685;28;20758;-75
2022/03/10 15:01:48;;;;;;;11.50;7.50;;;;;14.40;96988.00;;;;8373997;28;20231;-75
2022/03/10 15:05:51;;;;;;;9.65;6.20;;;;;14.50;96988.00;;;;8373600;28;20225;-75
2022/03/10 15:09:56;;;;;;;8.98;5.82;;;;;14.40;96979.00;;;;8374569;28;20310;-76
2022/03/10 15:14:00;;;;;;;10.30;5.88;;;;;14.20;96990.00;;;;8373934;28;20227;-76
2022/03/10 15:18:11;;;;;;;13.85;6.32;;;;;14.10;96986.00;;;;8363636;28;20580;-74
2022/03/10 15:22:14;;;;;;;10.48;6.00;;;;;14.00;96979.00;;;;8341589;28;20285;-75
2022/03/10 15:26:17;;;;;;;15.30;6.90;;;;;13.80;96980.00;;;;8337812;28;20277;-77
2022/03/10 15:30:21;;;;;;;13.52;7.22;;;;;13.60;96986.00;;;;8340547;28;20705;-73
2022/03/10 15:34:25;;;;;;;12.18;6.63;;;;;13.60;96985.00;;;;8345211;28;20226;-74
2022/03/10 15:38:28;;;;;;;12.43;7.15;;;;;13.50;96983.00;;;;8339208;28;20624;-74
2022/03/10 15:42:34;;;;;;;13.90;6.85;;;;;13.40;96996.00;;;;8342388;28;20258;-74
2022/03/10 15:46:37;;;;;;;11.85;6.57;;;;;13.30;96988.00;;;;8345507;28;20242;-73
2022/03/10 15:50:42;;;;;;;11.98;6.95;;;;;13.20;96972.00;;;;8346410;28;20677;-72
2022/03/10 15:54:48;;;;;;;10.70;6.88;;;;;13.10;96976.00;;;;8322771;28;20227;-73
2022/03/10 15:58:51;;;;;;;17.10;7.40;;;;;12.90;96979.00;;;;8334190;28;20684;-76
2022/03/10 16:02:57;;;;;;;16.77;7.22;;;;;12.70;96975.00;;;;8330458;28;20229;-77
2022/03/10 16:07:02;;;;;;;11.32;6.53;;;;;12.60;96974.00;;;;8329968;28;20265;-76
2022/03/10 16:11:06;;;;;;;14.23;6.45;;;;;12.30;96966.00;;;;8336038;28;20324;-76
2022/03/10 16:15:09;;;;;;;11.50;6.40;;;;;12.20;96969.00;;;;8330475;28;20229;-78
2022/03/10 16:19:12;;;;;;;11.90;6.20;;;;;12.00;96974.00;;;;8338703;28;20226;-77
2022/03/10 16:23:17;;;;;;;10.10;5.95;;;;;11.90;96969.00;;;;8332517;28;20321;-75
2022/03/10 16:27:20;;;;;;;9.15;5.80;;;;;11.80;96976.00;;;;8324364;28;20230;-76
2022/03/10 16:31:27;;;;;;;9.70;6.03;;;;;11.60;96972.00;;;;8303053;28;20232;-74
2022/03/10 16:35:31;;;;;;;9.40;5.93;;;;;11.50;96972.00;;;;8311313;28;20265;-74
2022/03/10 16:39:35;;;;;;;9.20;5.60;;;;;11.40;96978.00;;;;8294128;28;20231;-76
2022/03/10 16:43:38;;;;;;;10.30;5.90;;;;;11.20;96986.00;;;;8304150;28;20334;-76
2022/03/10 16:47:41;;;;;;;13.70;5.72;;;;;11.00;96984.00;;;;8305913;28;22074;-79
2022/03/10 16:51:46;;;;;;;11.48;6.10;;;;;10.80;96974.00;;;;8303462;28;20233;-76
2022/03/10 16:55:51;;;;;;;9.80;5.40;;;;;10.70;96986.00;;;;8301762;28;20302;-75
2022/03/10 16:59:54;;;;;;;13.95;6.95;;;;;10.50;96980.00;;;;8301352;28;20229;-75
2022/03/10 17:03:58;;;;;;;11.70;6.20;;;;;10.30;96984.00;;;;8298170;28;20295;-76
2022/03/10 17:08:02;;;;;;;16.07;6.77;;;;;10.10;96993.00;;;;8304518;28;20232;-74
2022/03/10 17:12:07;;;;;;;11.07;5.82;;;;;9.90;97001.00;;;;8305093;28;20798;-74
2022/03/10 17:16:13;;;;;;;10.00;5.97;;;;;9.80;96984.00;;;;8299675;28;20221;-72
2022/03/10 17:25:49;;;;;;;12.00;6.27;;;;;9.30;96996.00;;;;8328844;28;20387;-73
2022/03/10 17:29:53;;;;;;;13.00;6.80;;;;;9.10;96989.00;;;;8329458;28;20213;-74
2022/03/10 17:33:57;;;;;;;13.93;7.20;;;;;9.00;96989.00;;;;8330905;28;20267;-73
2022/03/10 17:38:35;;;;;;;16.27;7.97;;;;;8.90;97003.00;;;;8329305;28;20268;-73
2022/03/10 17:43:12;;;;;;;14.97;8.17;;;;;8.80;96996.00;;;;8325273;28;20300;-72
2022/03/10 17:47:52;;;;;;;15.00;8.03;;;;;8.60;97002.00;;;;8329786;28;20559;-73
2022/03/10 17:52:26;;;;;;;15.97;8.10;;;;;8.50;97007.00;;;;8329660;28;20226;-74
2022/03/10 17:57:03;;;;;;;16.70;8.43;;;;;8.40;96991.00;;;;8329378;28;20279;-74
2022/03/10 18:01:40;;;;;;;21.03;9.00;;;;;8.30;96996.00;;;;8329055;28;20221;-82
2022/03/10 18:06:17;;;;;;;16.90;9.00;;;;;8.30;96990.00;;;;8329762;28;20236;-75
2022/03/10 18:10:50;;;;;;;12.07;7.47;;;;;8.20;96983.00;;;;8328656;28;20271;-75
2022/03/10 18:15:27;;;;;;;14.90;8.03;;;;;8.10;96987.00;;;;8328973;28;20709;-74
2022/03/10 18:25:04;;;;;;;19.87;9.67;;;;;7.90;96984.00;;;;8328611;28;20258;-77
2022/03/10 18:29:39;;;;;;;20.30;10.00;;;;;7.80;96982.00;;;;8328852;28;20240;-76
2022/03/10 18:34:15;;;;;;;23.90;10.27;;;;;7.60;96980.00;;;;8327823;28;20267;-79
2022/03/10 18:38:52;;;;;;;18.87;8.47;;;;;7.60;96973.00;;;;8327345;28;20232;-82
2022/03/10 18:43:30;;;;;;;20.47;10.10;;;;;7.50;96969.00;;;;8328651;28;20213;-82
2022/03/10 18:48:03;;;;;;;17.27;9.73;;;;;7.40;96978.00;;;;8327360;28;20217;-78
2022/03/10 18:52:40;;;;;;;21.00;10.03;;;;;7.30;96986.00;;;;8329345;28;20219;-78
2022/03/10 18:56:43;;;;;;;18.97;9.40;;;;;7.10;96983.00;;;;8328088;28;20661;-77
2022/03/10 19:00:48;;;;;;;23.63;10.47;;;;;7.00;96981.00;;;;8328339;28;20269;-78
2022/03/10 19:05:26;;;;;;;22.10;10.30;;;;;6.80;96990.00;;;;8328497;28;20303;-79
2022/03/10 19:10:00;;;;;;;19.23;9.60;;;;;6.70;96987.00;;;;8325619;28;20235;-78
2022/03/10 19:14:36;;;;;;;25.40;9.43;;;;;6.50;96993.00;;;;8326279;28;20397;-73
2022/03/10 19:19:15;;;;;;;24.40;10.80;;;;;6.30;96999.00;;;;8324413;28;20236;-72
2022/03/10 19:23:48;;;;;;;20.70;9.43;;;;;6.20;96988.00;;;;8324438;28;20220;-73
2022/03/10 19:28:25;;;;;;;19.67;9.57;;;;;6.00;96991.00;;;;8327078;28;20637;-72
2022/03/10 19:37:27;;;;;;;21.23;8.83;;;;;5.80;96986.00;;;;8322365;28;20245;-73
2022/03/10 19:41:31;;;;;;;19.47;9.27;;;;;5.80;96989.00;;;;8326831;28;20562;-73
2022/03/10 19:45:35;;;;;;;18.90;9.87;;;;;5.80;96985.00;;;;8326691;28;20229;-73
2022/03/10 19:50:09;;;;;;;22.53;9.67;;;;;5.60;96988.00;;;;8327787;28;20617;-72
2022/03/10 19:54:13;;;;;;;19.43;9.73;;;;;5.40;96988.00;;;;8324637;28;20262;-72
2022/03/10 19:58:46;;;;;;;23.87;10.50;;;;;5.30;96987.00;;;;8327233;28;20235;-71
2022/03/10 20:03:24;;;;;;;20.00;9.87;;;;;5.20;96988.00;;;;8319948;28;20226;-72
2022/03/10 20:08:00;;;;;;;19.30;10.00;;;;;5.10;96999.00;;;;8332965;28;20223;-73
2022/03/10 20:12:05;;;;;;;21.17;10.50;;;;;5.10;96997.00;;;;8332430;28;20235;-73
2022/03/10 20:16:39;;;;;;;22.10;10.13;;;;;5.00;96989.00;;;;8332814;28;20217;-73
2022/03/10 20:20:42;;;;;;;25.83;9.83;;;;;5.00;96991.00;;;;8332954;28;20731;-72
2022/03/10 20:24:46;;;;;;;21.10;9.13;;;;;4.90;96991.00;;;;8332130;28;20358;-72
2022/03/10 20:29:22;;;;;;;23.07;9.73;;;;;4.90;96982.00;;;;8329793;28;20215;-73
2022/03/10 20:38:56;;;;;;;19.80;9.20;;;;;4.60;96983.00;;;;8331597;28;20234;-73
2022/03/10 20:43:33;;;;;;;22.87;10.10;;;;;4.50;96992.00;;;;8331547;28;20729;-73
2022/03/10 20:48:13;;;;;;;19.90;9.70;;;;;4.40;96983.00;;;;8331248;28;20258;-73
2022/03/10 20:52:47;;;;;;;23.73;10.23;;;;;4.40;96982.00;;;;8331916;28;20245;-74
2022/03/10 20:57:24;;;;;;;25.20;11.17;;;;;4.30;96983.00;;;;8331302;28;20268;-73